Tropical Cyclones
[Index]
Main Index Home Page Stock Weather Photos Extreme Storms Discussion Storm News and Storm Chasing Reports Tropical Cyclones / Hurricanes / Typhoons Weather Data and Links Wild Fires / Bushfires Weather Observation Techniques Weather Picture Catalogue Tornado Pictures and Reports Stock Video Footage and DVDs for sale
Season 1990-1991 Tropical Cyclone KELVIN Track Map
Season 1990-1991 Summaries: [BoM-AU] [JTWC-AU] [JTWC-SIO] [JTWC-SPAC] [JTWC-SH]
<<- Previous TC | BoM 1990-1991 Season | Next TC ->>

click for intensity scale information  Lat/long Grid: Show Hide

 Date Labels: Show Hide

Bureau of Meteorology Tropical Cyclone Data

Name: KELVIN
Number: 737 / 199091_05

24 Feb 1991 06:00 UTC to 05 Mar 1991 18:00 UTC

    date/time    lat    long    hPa   cat  kts
1991-02-24 06   11.7   141.9    999         31          
1991-02-24 08   11.6   142.0    999         31          
1991-02-24 10   11.8   143.4    999         31          
1991-02-24 12   12.4   143.8    999         31          
1991-02-24 16   13.4   144.7   1000         31          
1991-02-24 18   14.1   146.9   1000         31          
1991-02-25 00   14.3   149.5   1000         33          
1991-02-25 04   15.5   149.0    993    1    33          
1991-02-25 06   15.5   149.4    993    1    41          
1991-02-25 07   15.5   149.7    993    1    41          
1991-02-25 10   16.6   150.5    985    2    54          
1991-02-25 12   16.6   150.6    985    2    54          
1991-02-25 13   16.6   150.7    985    2    54          
1991-02-25 17   16.3   150.8    985    2    54          
1991-02-25 18   16.5   150.8    985    2    54          
1991-02-25 20   16.8   150.9    985    2    54          
1991-02-25 23   16.8   151.3    985    2    54          
1991-02-26 00   17.0   151.3    985    2    54          
1991-02-26 05   17.6   151.6    985    2    54          
1991-02-26 06   17.6   151.5    984    2    54          
1991-02-26 08   17.6   151.3    982    2    54          
1991-02-26 12   16.8   150.8    984    2    54          
1991-02-26 14   16.6   150.8    982    2    54          
1991-02-26 17   16.6   150.6    980    2    54          
1991-02-26 18   16.5   150.4    980    2    54          
1991-02-26 20   16.2   149.7    980    2    54          
1991-02-27 00   16.2   150.1    980    2    54          
1991-02-27 06   16.0   150.5    980    2    54          
1991-02-27 12   15.5   150.4    983    2    54          
1991-02-27 14   15.2   150.3    983    2    51          
1991-02-27 18   15.0   150.7    983    2    51          
1991-02-27 20   15.0   150.6    983    2    51          
1991-02-28 00   15.2   150.7    983    2    51          
1991-02-28 06   15.4   149.8    985    2    51          
1991-02-28 12   15.4   149.8    985    2    51          
1991-02-28 18   15.4   149.8    985    2    51          
1991-03-01 00   15.6   150.2    985    2    51          
1991-03-01 02   15.6   150.0    985    2    51          
1991-03-01 06   15.3   149.7    987    1    45          
1991-03-01 12   15.2   149.3    990    1    41          
1991-03-01 18   15.1   149.6    992    1    41          
1991-03-02 00   15.1   150.1    994    1    41          
1991-03-02 06   15.0   150.1    994    1    41          
1991-03-02 12   15.1   150.2    994    1    41          
1991-03-02 18   15.1   150.2    994    1    41          
1991-03-02 20   15.2   150.4    994    1    45          
1991-03-03 00   14.7   150.4    993    1    45          
1991-03-03 02   14.6   150.2    990    1    51          
1991-03-03 06   14.5   150.3    983    2    54          
1991-03-03 08   14.4   150.3    983    2    54          
1991-03-03 12   14.4   150.4    983    2    54          
1991-03-03 18   14.5   150.4    983    2    54          
1991-03-04 00   14.2   150.2    983    2    54          
1991-03-04 06   15.0   150.0    983    2    54          
1991-03-04 12   13.9   149.9    983    2    54          
1991-03-04 18   13.9   149.9    988    1    45          
1991-03-05 00   13.8   149.8    990    1    45          
1991-03-05 06   13.7   149.5    992    1    45          
1991-03-05 12   14.0   149.8    992    1    41          
1991-03-05 18   14.7   150.0    996         41          
Winds are 10-min average.

Tropical cyclone tracks developed by Michael Bath using data from the Bureau of Meteorology and Google Maps.


[Australian Severe Weather index] [Copyright Notice] [Email Contacts] [Search This Site] [Privacy Policy]
Document: tropical_cyclone_kelvin.htm Updated: 30 May 2013